Time;durP1;ratioP1;P1;durP2;ratioP2;P2;SDS_P1;SDS_P2;PMS_P1;PMS_P2;Temp;Humidity;BMP_temperature;BMP_pressure;BME280_temperature;BME280_humidity;BME280_pressure;Samples;Min_cycle;Max_cycle;Signal;HPM_P1;HPM_P2
2022/09/18 00:00:27;;;;;;;1.40;1.30;;;19.40;63.90;;;;;;4984981;28;20172;-83
2022/09/18 00:02:53;;;;;;;1.40;1.30;;;19.40;63.80;;;;;;4984715;28;20207;-83
2022/09/18 00:05:23;;;;;;;1.50;1.40;;;19.40;63.90;;;;;;4984101;28;20657;-83
2022/09/18 00:07:49;;;;;;;1.50;1.40;;;19.40;63.90;;;;;;4967198;28;20240;-83
2022/09/18 00:10:23;;;;;;;1.50;1.40;;;19.40;63.90;;;;;;4984050;28;20662;-83
2022/09/18 00:12:53;;;;;;;1.55;1.45;;;19.40;63.90;;;;;;4951434;28;20187;-83
2022/09/18 00:15:19;;;;;;;1.42;1.33;;;19.40;64.00;;;;;;4967407;28;20187;-83
2022/09/18 00:17:51;;;;;;;1.52;1.42;;;19.40;63.90;;;;;;4984646;28;20179;-83
2022/09/18 00:20:19;;;;;;;1.33;1.23;;;19.40;64.00;;;;;;4950911;28;20187;-84
2022/09/18 00:22:46;;;;;;;1.40;1.30;;;19.40;64.00;;;;;;4984658;28;20278;-83
2022/09/18 00:25:15;;;;;;;1.30;1.20;;;19.40;64.00;;;;;;4967243;28;20317;-83
2022/09/18 00:27:41;;;;;;;1.50;1.40;;;19.40;63.90;;;;;;4983845;28;20402;-83
2022/09/18 00:30:07;;;;;;;1.40;1.30;;;19.50;64.00;;;;;;4967560;28;20682;-83
2022/09/18 00:32:33;;;;;;;1.23;1.13;;;19.40;64.00;;;;;;4983603;28;20565;-83
2022/09/18 00:35:02;;;;;;;1.30;1.20;;;19.40;64.00;;;;;;4983842;28;20164;-83
2022/09/18 00:37:28;;;;;;;1.52;1.40;;;19.40;64.00;;;;;;4983992;28;20182;-83
2022/09/18 00:39:57;;;;;;;1.38;1.27;;;19.40;64.00;;;;;;4967747;28;20217;-83
2022/09/18 00:42:33;;;;;;;1.63;1.50;;;19.40;64.00;;;;;;5000067;28;20187;-83
2022/09/18 00:45:09;;;;;;;1.60;1.40;;;19.40;64.00;;;;;;4967124;28;20325;-83
2022/09/18 00:47:42;;;;;;;1.50;1.40;;;19.40;64.00;;;;;;4999972;28;20217;-83
2022/09/18 00:50:17;;;;;;;1.58;1.48;;;19.40;64.00;;;;;;4967733;28;20254;-83
2022/09/18 00:52:56;;;;;;;1.60;1.50;;;19.40;64.10;;;;;;4966985;28;20541;-83
2022/09/18 00:55:28;;;;;;;1.50;1.30;;;19.40;64.00;;;;;;4969332;28;20186;-83
2022/09/18 00:58:01;;;;;;;1.23;1.13;;;19.40;64.00;;;;;;4951910;28;20183;-83
2022/09/18 01:00:28;;;;;;;1.35;1.25;;;19.40;64.10;;;;;;4950683;28;20187;-83
2022/09/18 01:03:01;;;;;;;1.35;1.25;;;19.40;64.10;;;;;;4967343;28;20200;-83
2022/09/18 01:06:02;;;;;;;1.60;1.50;;;19.40;64.10;;;;;;4950113;28;20249;-83
2022/09/18 01:08:48;;;;;;;1.20;1.10;;;19.40;64.10;;;;;;4938768;28;20186;-83
2022/09/18 01:11:35;;;;;;;1.40;1.30;;;19.40;64.10;;;;;;4953263;28;20221;-83
2022/09/18 01:14:29;;;;;;;1.45;1.35;;;19.40;64.10;;;;;;4966536;28;20270;-83
2022/09/18 01:17:25;;;;;;;1.50;1.40;;;19.40;64.10;;;;;;4969970;28;20202;-83
2022/09/18 01:20:29;;;;;;;1.50;1.40;;;19.30;64.00;;;;;;4983352;28;20168;-83
2022/09/18 01:23:19;;;;;;;1.45;1.33;;;19.40;64.10;;;;;;4966918;28;20226;-83
2022/09/18 01:26:13;;;;;;;1.30;1.20;;;19.40;64.20;;;;;;4985580;28;20667;-83
2022/09/18 01:29:04;;;;;;;1.15;1.05;;;19.40;64.20;;;;;;4926900;28;20179;-83
2022/09/18 01:31:37;;;;;;;1.30;1.20;;;19.40;64.10;;;;;;4985994;28;20179;-83
2022/09/18 01:34:20;;;;;;;1.35;1.25;;;19.40;64.10;;;;;;4983293;28;20190;-83
2022/09/18 01:36:53;;;;;;;1.50;1.40;;;19.40;64.10;;;;;;5000292;28;20611;-84
2022/09/18 01:39:30;;;;;;;1.33;1.23;;;19.30;64.10;;;;;;4983150;28;20167;-83
2022/09/18 01:41:59;;;;;;;1.38;1.27;;;19.40;64.10;;;;;;4983428;28;20202;-83
2022/09/18 01:44:30;;;;;;;1.42;1.33;;;19.40;64.10;;;;;;4982516;28;20229;-83
2022/09/18 01:47:02;;;;;;;1.63;1.25;;;19.40;64.10;;;;;;4998787;28;20155;-83
2022/09/18 01:49:37;;;;;;;1.38;1.27;;;19.40;64.10;;;;;;4965265;28;20179;-83
2022/09/18 01:52:09;;;;;;;1.52;1.42;;;19.40;64.10;;;;;;4965950;28;20190;-83
2022/09/18 01:54:41;;;;;;;1.30;1.20;;;19.40;64.10;;;;;;4982767;28;20159;-83
2022/09/18 01:57:23;;;;;;;1.45;1.35;;;19.40;64.20;;;;;;4949450;28;20215;-83
2022/09/18 01:59:58;;;;;;;1.40;1.20;;;19.30;64.10;;;;;;4982778;28;20164;-83
2022/09/18 02:02:40;;;;;;;1.55;1.30;;;19.40;64.30;;;;;;4982786;28;20187;-83
2022/09/18 02:05:09;;;;;;;1.50;1.40;;;19.40;64.20;;;;;;4983154;28;20238;-83
2022/09/18 02:07:43;;;;;;;1.27;1.15;;;19.30;64.10;;;;;;4998432;28;20175;-83
2022/09/18 02:10:14;;;;;;;1.40;1.30;;;19.40;64.30;;;;;;4965901;28;20185;-83
2022/09/18 02:12:41;;;;;;;1.40;1.30;;;19.40;64.20;;;;;;4949183;28;20306;-83
2022/09/18 02:15:12;;;;;;;1.40;1.30;;;19.30;64.20;;;;;;4980837;28;20183;-83
2022/09/18 02:17:46;;;;;;;1.35;1.25;;;19.30;64.20;;;;;;4949550;28;20737;-83
2022/09/18 02:20:19;;;;;;;1.60;1.50;;;19.30;64.20;;;;;;4949880;28;20230;-83
2022/09/18 02:22:46;;;;;;;1.17;1.08;;;19.30;64.20;;;;;;4965732;28;20273;-83
2022/09/18 02:25:14;;;;;;;1.50;1.40;;;19.40;64.30;;;;;;4949263;28;20179;-83
2022/09/18 02:27:42;;;;;;;1.50;1.30;;;19.30;64.20;;;;;;4949631;28;20689;-83
2022/09/18 02:30:10;;;;;;;1.08;0.98;;;19.30;64.20;;;;;;4998295;28;20170;-83
2022/09/18 02:32:36;;;;;;;1.30;1.20;;;19.30;64.10;;;;;;4981908;28;20525;-82
2022/09/18 02:35:02;;;;;;;1.45;1.35;;;19.30;64.10;;;;;;4981952;28;20163;-83
2022/09/18 02:37:45;;;;;;;1.25;1.15;;;19.30;64.20;;;;;;4982539;28;20206;-83
2022/09/18 02:40:34;;;;;;;1.58;1.40;;;19.40;64.30;;;;;;4982970;28;20203;-83
2022/09/18 02:43:22;;;;;;;1.27;1.17;;;19.30;64.20;;;;;;5000281;28;20187;-84
2022/09/18 02:46:24;;;;;;;1.75;1.50;;;19.30;64.20;;;;;;4981253;28;20243;-83
2022/09/18 02:49:14;;;;;;;1.40;1.30;;;19.30;64.10;;;;;;5015174;28;20610;-83
2022/09/18 02:51:51;;;;;;;1.27;1.17;;;19.30;64.10;;;;;;4998038;28;20160;-83
2022/09/18 02:54:38;;;;;;;1.30;1.20;;;19.30;64.10;;;;;;4949055;28;20240;-83
2022/09/18 02:57:14;;;;;;;1.23;1.13;;;19.30;64.10;;;;;;4981323;28;20167;-83
2022/09/18 02:59:44;;;;;;;1.38;1.27;;;19.30;64.20;;;;;;4965264;28;20179;-83
2022/09/18 03:02:10;;;;;;;1.35;1.25;;;19.40;64.20;;;;;;4981939;28;20183;-83
2022/09/18 03:04:35;;;;;;;1.30;1.20;;;19.30;64.10;;;;;;4965075;28;20222;-83
2022/09/18 03:07:02;;;;;;;1.20;1.10;;;19.30;64.20;;;;;;4965743;28;20629;-83
2022/09/18 03:09:34;;;;;;;1.30;1.20;;;19.30;64.10;;;;;;4966078;28;20167;-83
2022/09/18 03:12:01;;;;;;;1.38;1.20;;;19.30;64.20;;;;;;4997891;28;20637;-83
2022/09/18 03:14:27;;;;;;;1.30;1.20;;;19.30;64.10;;;;;;4981859;28;20160;-83
2022/09/18 03:16:56;;;;;;;1.27;1.17;;;19.30;64.10;;;;;;4965158;28;20254;-83
2022/09/18 03:19:27;;;;;;;1.27;1.17;;;19.30;64.10;;;;;;4932947;28;20180;-83
2022/09/18 03:21:56;;;;;;;1.30;1.20;;;19.30;64.00;;;;;;4964596;28;20215;-83
2022/09/18 03:24:29;;;;;;;1.20;1.10;;;19.30;64.00;;;;;;4965236;28;20635;-83
2022/09/18 03:26:59;;;;;;;1.35;1.25;;;19.30;64.10;;;;;;4964815;28;20176;-83
2022/09/18 03:29:27;;;;;;;0.93;0.93;;;19.30;64.10;;;;;;4948702;28;20213;-83
2022/09/18 03:32:03;;;;;;;1.20;1.05;;;19.30;64.00;;;;;;4965369;28;20167;-83
2022/09/18 03:34:29;;;;;;;1.40;1.30;;;19.30;64.20;;;;;;4965548;28;20167;-83
2022/09/18 03:37:00;;;;;;;1.30;1.20;;;19.30;64.20;;;;;;4981518;28;20518;-83
2022/09/18 03:39:26;;;;;;;1.20;1.10;;;19.30;64.10;;;;;;4981448;28;20170;-83
2022/09/18 03:41:56;;;;;;;1.20;1.10;;;19.30;64.10;;;;;;4997232;28;20195;-83
2022/09/18 03:44:26;;;;;;;1.17;1.08;;;19.30;64.00;;;;;;4997380;28;20167;-84
2022/09/18 03:46:56;;;;;;;1.20;1.10;;;19.30;64.20;;;;;;4933246;28;20179;-83
2022/09/18 03:49:28;;;;;;;1.10;1.02;;;19.30;64.10;;;;;;4948814;28;20543;-83
2022/09/18 03:51:58;;;;;;;1.10;1.00;;;19.30;64.00;;;;;;4931865;28;20631;-83
2022/09/18 03:54:28;;;;;;;1.30;1.17;;;19.40;64.10;;;;;;4932504;28;20669;-83
2022/09/18 03:56:58;;;;;;;1.10;1.00;;;19.20;64.20;;;;;;4933020;28;20282;-83
2022/09/18 03:59:28;;;;;;;1.30;1.20;;;19.30;64.20;;;;;;4948817;28;20175;-84
2022/09/18 04:01:58;;;;;;;1.17;1.08;;;19.30;64.10;;;;;;4951178;28;20226;-83
2022/09/18 04:04:23;;;;;;;1.20;1.10;;;19.20;64.10;;;;;;4984682;28;20222;-83
2022/09/18 04:06:54;;;;;;;1.35;1.25;;;19.30;64.20;;;;;;4968542;28;20181;-83
2022/09/18 04:09:20;;;;;;;1.30;1.20;;;19.30;64.10;;;;;;4951668;28;20183;-83
2022/09/18 04:11:45;;;;;;;1.30;1.20;;;19.30;64.10;;;;;;4984554;28;20622;-83
2022/09/18 04:14:16;;;;;;;1.13;1.02;;;19.30;64.20;;;;;;4968086;28;20171;-83
2022/09/18 04:16:45;;;;;;;1.00;1.00;;;19.30;64.10;;;;;;4984374;28;20171;-83
2022/09/18 04:19:12;;;;;;;1.17;1.02;;;19.30;64.20;;;;;;4984181;28;20676;-83
2022/09/18 04:21:41;;;;;;;1.30;1.20;;;19.30;64.20;;;;;;4967847;28;20210;-83
2022/09/18 04:24:08;;;;;;;1.20;1.10;;;19.30;64.20;;;;;;4984073;28;20175;-83
2022/09/18 04:26:38;;;;;;;1.20;1.10;;;19.30;64.30;;;;;;4984731;28;20160;-83
2022/09/18 04:29:09;;;;;;;1.20;1.10;;;19.30;64.20;;;;;;5000548;28;20156;-83
2022/09/18 04:31:39;;;;;;;1.60;1.40;;;19.30;64.10;;;;;;4984028;28;20258;-83
2022/09/18 04:34:07;;;;;;;1.30;1.20;;;19.20;64.00;;;;;;4951303;28;20221;-83
2022/09/18 04:36:37;;;;;;;1.20;1.10;;;19.30;64.10;;;;;;4967819;28;20164;-83
2022/09/18 04:39:05;;;;;;;1.38;1.27;;;19.20;64.10;;;;;;4935545;28;20670;-83
2022/09/18 04:41:32;;;;;;;1.40;1.30;;;19.20;64.20;;;;;;4950953;28;20226;-83
2022/09/18 04:44:07;;;;;;;1.30;1.20;;;19.20;64.00;;;;;;4967643;28;20167;-83
2022/09/18 04:46:37;;;;;;;0.98;0.93;;;19.20;64.20;;;;;;4966800;28;20233;-83
2022/09/18 04:49:05;;;;;;;1.00;0.90;;;19.20;64.10;;;;;;4983114;28;20195;-83
2022/09/18 04:51:37;;;;;;;1.10;1.00;;;19.30;65.00;;;;;;4966553;28;20180;-83
2022/09/18 04:54:02;;;;;;;1.30;1.20;;;19.30;64.10;;;;;;4984389;28;20309;-83
2022/09/18 04:56:30;;;;;;;1.00;0.90;;;19.30;64.30;;;;;;4985029;28;20187;-83
2022/09/18 04:58:56;;;;;;;1.13;1.02;;;19.20;64.10;;;;;;4984668;28;20179;-83
2022/09/18 05:01:22;;;;;;;1.20;1.10;;;19.20;64.10;;;;;;4984013;28;20272;-83
2022/09/18 05:03:48;;;;;;;1.23;1.13;;;19.20;64.20;;;;;;4983536;28;20163;-84
2022/09/18 05:06:39;;;;;;;0.90;0.90;;;19.20;64.20;;;;;;4983387;28;20230;-83
2022/09/18 05:09:05;;;;;;;1.02;1.00;;;19.20;64.10;;;;;;4983251;28;20183;-83
2022/09/18 05:11:36;;;;;;;1.10;1.00;;;19.30;64.20;;;;;;4982563;28;20178;-83
2022/09/18 05:14:06;;;;;;;1.17;1.05;;;19.20;64.20;;;;;;4966260;28;20538;-83
2022/09/18 05:16:39;;;;;;;1.27;1.17;;;19.30;64.00;;;;;;4950505;28;20175;-83
2022/09/18 05:19:09;;;;;;;0.90;0.90;;;19.20;64.20;;;;;;4950222;28;20546;-84
2022/09/18 05:21:40;;;;;;;1.10;1.00;;;19.20;64.20;;;;;;4950548;28;20678;-83
2022/09/18 05:24:06;;;;;;;1.25;1.15;;;19.20;64.10;;;;;;4949993;28;20186;-83
2022/09/18 05:26:36;;;;;;;0.90;0.90;;;19.20;64.10;;;;;;4999565;28;20155;-83
2022/09/18 05:29:08;;;;;;;1.25;1.15;;;19.20;64.00;;;;;;4934025;28;20191;-83
2022/09/18 05:31:40;;;;;;;1.20;1.10;;;19.30;64.20;;;;;;4949987;28;20175;-83
2022/09/18 05:34:11;;;;;;;1.13;1.02;;;19.20;64.00;;;;;;4950709;28;20187;-83
2022/09/18 05:36:42;;;;;;;1.05;1.00;;;19.30;63.80;;;;;;4934483;28;20183;-83
2022/09/18 05:39:12;;;;;;;1.25;1.08;;;19.20;64.10;;;;;;4950573;28;20176;-83
2022/09/18 05:41:38;;;;;;;0.90;0.90;;;19.30;64.20;;;;;;4965509;28;20222;-83
2022/09/18 05:44:09;;;;;;;1.30;1.20;;;19.30;64.10;;;;;;4982595;28;20526;-83
2022/09/18 05:46:35;;;;;;;1.17;1.08;;;19.20;64.10;;;;;;4966061;28;20643;-83
2022/09/18 05:49:06;;;;;;;1.08;1.00;;;19.20;64.00;;;;;;4998629;28;20162;-83
2022/09/18 05:51:33;;;;;;;1.10;1.00;;;19.20;64.10;;;;;;4975165;28;20269;-83
2022/09/18 05:53:59;;;;;;;1.10;1.00;;;19.20;64.10;;;;;;4982718;28;20155;-83
2022/09/18 05:56:29;;;;;;;1.20;1.10;;;19.20;64.10;;;;;;4982565;28;20186;-83
2022/09/18 05:58:57;;;;;;;1.10;1.00;;;19.20;64.20;;;;;;4968839;28;20183;-83
2022/09/18 06:01:23;;;;;;;1.10;1.00;;;19.20;64.20;;;;;;4993506;28;20191;-83
2022/09/18 06:03:50;;;;;;;0.85;0.85;;;19.20;64.20;;;;;;5010343;28;20162;-84
2022/09/18 06:06:16;;;;;;;1.20;1.10;;;19.20;64.10;;;;;;4995661;28;20231;-83
2022/09/18 06:08:42;;;;;;;1.10;1.00;;;19.20;64.20;;;;;;5012491;28;20179;-84
2022/09/18 06:11:07;;;;;;;0.98;0.90;;;19.20;64.30;;;;;;4994183;28;20300;-83
2022/09/18 06:13:33;;;;;;;1.25;1.15;;;19.20;64.40;;;;;;5007415;28;20601;-83
2022/09/18 06:15:59;;;;;;;1.13;1.02;;;19.20;64.30;;;;;;4997030;28;20164;-84
2022/09/18 06:18:25;;;;;;;1.10;1.00;;;19.10;64.00;;;;;;4982749;28;20190;-83
2022/09/18 06:20:53;;;;;;;0.93;0.88;;;19.20;64.30;;;;;;4972663;28;20174;-84
2022/09/18 06:23:21;;;;;;;1.10;1.00;;;19.30;64.20;;;;;;4969721;28;20174;-83
2022/09/18 06:25:47;;;;;;;1.00;0.90;;;19.20;64.20;;;;;;4989868;28;20162;-84
2022/09/18 06:28:18;;;;;;;1.10;0.93;;;19.10;64.20;;;;;;4973928;28;20171;-83
2022/09/18 06:30:47;;;;;;;1.20;1.10;;;19.20;64.20;;;;;;4956269;28;20286;-86
2022/09/18 06:33:16;;;;;;;0.95;0.90;;;19.20;64.20;;;;;;4976996;28;20195;-82
2022/09/18 06:35:48;;;;;;;1.30;1.20;;;19.20;65.00;;;;;;4974110;28;20597;-82
2022/09/18 06:38:16;;;;;;;0.90;0.90;;;19.20;65.00;;;;;;4943135;28;20175;-84
2022/09/18 06:40:53;;;;;;;1.20;1.10;;;19.20;64.20;;;;;;4956099;28;20182;-82
2022/09/18 06:43:22;;;;;;;0.90;0.90;;;19.20;64.30;;;;;;4971812;28;20195;-83
2022/09/18 06:45:55;;;;;;;1.25;1.15;;;19.20;64.30;;;;;;4965316;28;20194;-83
2022/09/18 06:48:33;;;;;;;1.38;1.20;;;19.20;64.30;;;;;;4935760;28;20179;-83
2022/09/18 06:51:01;;;;;;;1.27;1.17;;;19.20;64.30;;;;;;4950753;28;20183;-84
2022/09/18 06:53:29;;;;;;;1.10;1.00;;;19.20;64.30;;;;;;4952104;28;20609;-84
2022/09/18 06:55:58;;;;;;;1.10;0.98;;;19.20;64.20;;;;;;4959642;28;20547;-83
2022/09/18 06:58:26;;;;;;;1.30;1.20;;;19.30;64.30;;;;;;4972159;28;20630;-83
2022/09/18 07:00:53;;;;;;;1.40;1.00;;;19.20;64.60;;;;;;4969001;28;20167;-83
2022/09/18 07:03:27;;;;;;;1.10;1.00;;;19.20;64.40;;;;;;4974134;28;20606;-84
2022/09/18 07:05:59;;;;;;;2.33;1.15;;;19.20;64.20;;;;;;4958252;28;20226;-83
2022/09/18 07:08:27;;;;;;;2.25;1.10;;;19.20;64.20;;;;;;4959597;28;20187;-85
2022/09/18 07:11:01;;;;;;;2.13;1.10;;;19.30;64.30;;;;;;4954150;28;20638;-84
2022/09/18 07:13:31;;;;;;;1.00;0.90;;;19.30;64.20;;;;;;4986576;28;20164;-83
2022/09/18 07:16:03;;;;;;;1.08;0.93;;;19.30;63.90;;;;;;4974061;28;20159;-83
2022/09/18 07:18:29;;;;;;;0.80;0.80;;;19.30;63.60;;;;;;4961471;28;20205;-84
2022/09/18 07:20:59;;;;;;;1.08;1.00;;;19.30;63.50;;;;;;4977568;28;20163;-84
2022/09/18 07:23:28;;;;;;;0.98;0.98;;;19.30;63.30;;;;;;4990113;28;20159;-84
2022/09/18 07:25:58;;;;;;;1.10;0.95;;;19.30;63.40;;;;;;4995693;28;20163;-83
2022/09/18 07:28:28;;;;;;;1.10;1.00;;;19.30;63.30;;;;;;4976340;28;20238;-83
2022/09/18 07:30:54;;;;;;;2.38;0.80;;;19.40;63.40;;;;;;4989165;28;20156;-83
2022/09/18 07:33:24;;;;;;;1.00;0.95;;;19.30;63.30;;;;;;4994814;28;20188;-84
2022/09/18 07:35:52;;;;;;;1.15;0.85;;;19.30;63.30;;;;;;4996955;28;20178;-83
2022/09/18 07:38:18;;;;;;;3.42;0.90;;;19.30;63.20;;;;;;4976089;28;20626;-83
2022/09/18 07:40:45;;;;;;;0.80;0.80;;;19.30;63.00;;;;;;4974984;28;20159;-84
2022/09/18 07:43:14;;;;;;;1.00;1.00;;;19.40;62.90;;;;;;4996265;28;20223;-83
2022/09/18 07:45:40;;;;;;;0.73;0.73;;;19.40;63.10;;;;;;4998334;28;20186;-84
2022/09/18 07:48:09;;;;;;;0.90;0.90;;;19.40;62.90;;;;;;4981400;28;20186;-85
2022/09/18 07:50:41;;;;;;;0.88;0.63;;;19.40;63.10;;;;;;4998417;28;20170;-84
2022/09/18 07:53:08;;;;;;;0.90;0.90;;;19.40;62.80;;;;;;4998497;28;20173;-84
2022/09/18 07:55:41;;;;;;;0.95;0.90;;;19.40;62.90;;;;;;4980764;28;20160;-84
2022/09/18 07:58:18;;;;;;;1.73;0.95;;;19.40;63.10;;;;;;4982031;28;20243;-83
2022/09/18 08:00:46;;;;;;;1.00;0.90;;;19.40;62.70;;;;;;4964313;28;20183;-83
2022/09/18 08:03:17;;;;;;;0.95;0.85;;;19.40;62.70;;;;;;4944188;28;20223;-83
2022/09/18 08:05:55;;;;;;;1.00;0.90;;;19.40;62.80;;;;;;4962282;28;20223;-83
2022/09/18 08:08:21;;;;;;;1.92;0.95;;;19.40;62.70;;;;;;4994271;28;20231;-84
2022/09/18 08:10:58;;;;;;;2.17;1.00;;;19.50;62.90;;;;;;4998087;28;20238;-84
2022/09/18 08:13:24;;;;;;;1.80;0.90;;;19.40;63.80;;;;;;4965996;28;20245;-83
2022/09/18 08:15:51;;;;;;;1.05;0.98;;;19.50;63.00;;;;;;4981028;28;20175;-84
2022/09/18 08:18:19;;;;;;;0.80;0.80;;;19.50;63.00;;;;;;4959130;28;20184;-83
2022/09/18 08:20:48;;;;;;;2.72;0.95;;;19.50;63.10;;;;;;4978393;28;20176;-84
2022/09/18 08:23:18;;;;;;;1.38;0.90;;;19.50;62.80;;;;;;4964618;28;20227;-84
2022/09/18 08:25:47;;;;;;;1.67;0.80;;;19.50;62.70;;;;;;4955851;29;20182;-83
2022/09/18 08:28:13;;;;;;;1.35;0.82;;;19.50;62.70;;;;;;4925613;29;20182;-83
2022/09/18 08:30:42;;;;;;;0.70;0.70;;;19.50;62.70;;;;;;4923888;29;20744;-83
2022/09/18 08:33:10;;;;;;;1.20;0.98;;;19.50;62.70;;;;;;4940217;29;20186;-84
2022/09/18 08:35:40;;;;;;;0.90;0.80;;;19.50;62.80;;;;;;4939979;29;20222;-83
2022/09/18 08:38:10;;;;;;;1.20;1.00;;;19.50;62.90;;;;;;4924540;29;20185;-83
2022/09/18 08:40:38;;;;;;;0.77;0.77;;;19.50;62.60;;;;;;4902419;29;20215;-83
2022/09/18 08:43:33;;;;;;;1.08;0.98;;;19.40;62.60;;;;;;4918581;29;20203;-83
2022/09/18 08:46:04;;;;;;;1.00;0.90;;;19.50;62.60;;;;;;4884855;29;20222;-83
2022/09/18 08:48:34;;;;;;;1.08;1.00;;;19.50;62.60;;;;;;4875418;29;20178;-83
2022/09/18 08:51:21;;;;;;;2.28;0.80;;;19.50;63.60;;;;;;4903835;29;20194;-83
2022/09/18 08:54:45;;;;;;;0.95;0.68;;;19.50;62.70;;;;;;4897536;29;20190;-83
2022/09/18 08:57:47;;;;;;;1.45;0.80;;;19.50;62.50;;;;;;4893245;29;20181;-82
2022/09/18 09:00:33;;;;;;;1.55;0.85;;;19.50;63.30;;;;;;4896276;29;20173;-83
2022/09/18 09:06:57;;;;;;;1.42;0.60;;;19.50;62.30;;;;;;4894071;29;20222;-82
2022/09/18 09:26:25;;;;;;;1.00;0.90;;;19.50;62.90;;;;;;4915886;29;20159;-83
2022/09/18 09:29:23;;;;;;;1.88;0.95;;;19.50;62.60;;;;;;4886408;29;20193;-82
2022/09/18 09:32:37;;;;;;;1.08;0.98;;;19.50;63.70;;;;;;4899795;29;20176;-83
2022/09/18 09:42:33;;;;;;;0.70;0.70;;;19.50;62.60;;;;;;4920059;29;20259;-83
2022/09/18 10:05:43;;;;;;;0.82;0.82;;;19.50;62.20;;;;;;5493915;23;20222;-84
2022/09/18 10:08:34;;;;;;;0.95;0.85;;;19.50;62.40;;;;;;4957851;28;20178;-82
2022/09/18 10:25:46;;;;;;;0.65;0.65;;;19.40;61.70;;;;;;5315701;23;20280;-84
2022/09/18 10:32:00;;;;;;;0.52;0.52;;;19.40;61.50;;;;;;5376607;23;20239;-84
2022/09/18 10:34:51;;;;;;;0.90;0.80;;;19.40;61.50;;;;;;5019197;28;20207;-83
2022/09/18 10:37:46;;;;;;;0.57;0.57;;;19.40;61.30;;;;;;4957651;29;20253;-84
2022/09/18 10:40:44;;;;;;;1.98;0.70;;;19.40;61.00;;;;;;4887302;29;20198;-83
2022/09/18 10:50:05;;;;;;;0.65;0.65;;;19.40;60.50;;;;;;5036386;28;20158;-84
2022/09/18 10:53:28;;;;;;;0.60;0.60;;;19.40;60.30;;;;;;4979329;28;20247;-84
2022/09/18 12:49:10;;;;;;;0.55;0.55;;;19.40;55.50;;;;;;5347538;23;20220;-83
2022/09/18 12:58:31;;;;;;;0.75;0.40;;;19.50;55.80;;;;;;5913743;23;20245;-82
2022/09/18 13:01:29;;;;;;;1.13;0.50;;;19.50;55.50;;;;;;5028326;28;20220;-83
2022/09/18 13:04:23;;;;;;;0.63;0.38;;;19.50;55.50;;;;;;5010976;28;20282;-83
2022/09/18 13:07:14;;;;;;;0.80;0.50;;;19.40;55.40;;;;;;4987470;28;20178;-83
2022/09/18 13:10:20;;;;;;;2.35;0.35;;;19.50;55.60;;;;;;5015206;28;20183;-83
2022/09/18 13:13:14;;;;;;;0.40;0.40;;;19.50;55.50;;;;;;4983295;28;20179;-84
2022/09/18 13:15:58;;;;;;;0.40;0.40;;;19.50;55.50;;;;;;5002799;28;20228;-83
2022/09/18 13:18:24;;;;;;;0.40;0.40;;;19.50;55.60;;;;;;5016077;28;20242;-82
2022/09/18 13:20:51;;;;;;;0.40;0.40;;;19.50;55.60;;;;;;5016918;28;20212;-82
2022/09/18 13:23:20;;;;;;;0.40;0.40;;;19.50;55.40;;;;;;4981059;28;20283;-82
2022/09/18 13:26:18;;;;;;;0.30;0.30;;;19.40;55.40;;;;;;5014593;28;20222;-83
2022/09/18 13:28:53;;;;;;;0.40;0.40;;;19.50;55.30;;;;;;4955192;29;20194;-83
2022/09/18 13:31:36;;;;;;;0.40;0.40;;;19.50;55.40;;;;;;4914316;29;20187;-81
2022/09/18 13:34:04;;;;;;;0.40;0.40;;;19.40;55.20;;;;;;4884842;29;20761;-83
2022/09/18 13:36:42;;;;;;;1.27;0.40;;;19.50;55.30;;;;;;4882931;29;20183;-82
2022/09/18 13:39:20;;;;;;;0.40;0.40;;;19.40;55.10;;;;;;4879407;29;20695;-82
2022/09/18 13:42:00;;;;;;;0.40;0.40;;;19.40;55.10;;;;;;4862885;29;20626;-82
2022/09/18 13:44:39;;;;;;;0.35;0.30;;;19.50;55.00;;;;;;4896768;29;20213;-83
2022/09/18 13:47:10;;;;;;;0.52;0.50;;;19.50;54.90;;;;;;4911379;29;20184;-82
2022/09/18 13:50:00;;;;;;;0.40;0.40;;;19.50;55.00;;;;;;4872999;29;20215;-82
2022/09/18 13:52:45;;;;;;;0.40;0.40;;;19.50;55.00;;;;;;4870132;29;20228;-82
2022/09/18 13:55:46;;;;;;;0.30;0.30;;;19.50;55.00;;;;;;4954885;28;20261;-82
2022/09/18 13:58:37;;;;;;;0.55;0.38;;;19.50;55.00;;;;;;4961240;28;20187;-83
2022/09/18 14:01:45;;;;;;;0.35;0.35;;;19.50;54.90;;;;;;4950130;29;20190;-83
2022/09/18 14:05:20;;;;;;;0.30;0.30;;;19.50;54.90;;;;;;4926017;29;20190;-83
2022/09/18 14:07:56;;;;;;;1.33;0.47;;;19.50;54.80;;;;;;4946639;29;20221;-83
2022/09/18 14:14:43;;;;;;;0.45;0.43;;;19.50;54.80;;;;;;4948792;29;20178;-83
2022/09/18 14:24:35;;;;;;;0.45;0.45;;;19.50;54.90;;;;;;4949125;29;20266;-83
2022/09/18 14:27:48;;;;;;;1.85;0.40;;;19.50;54.80;;;;;;4923068;29;20190;-84
2022/09/18 14:30:29;;;;;;;0.38;0.38;;;19.50;54.80;;;;;;4910354;29;20190;-84
2022/09/18 14:33:23;;;;;;;0.65;0.40;;;19.50;54.70;;;;;;4893220;29;20214;-84
2022/09/18 14:36:03;;;;;;;0.43;0.43;;;19.50;54.70;;;;;;4913812;29;20292;-85
2022/09/18 14:38:40;;;;;;;1.65;0.40;;;19.50;54.80;;;;;;4910803;29;20251;-83
2022/09/18 14:41:56;;;;;;;0.55;0.38;;;19.50;54.90;;;;;;4883921;29;20334;-83
2022/09/18 14:44:36;;;;;;;0.30;0.30;;;19.60;55.00;;;;;;4908739;29;20274;-83
2022/09/18 14:47:29;;;;;;;0.30;0.30;;;19.60;54.80;;;;;;4875216;29;20229;-83
2022/09/18 14:50:00;;;;;;;0.35;0.35;;;19.60;54.70;;;;;;4877345;29;20274;-83
2022/09/18 14:52:52;;;;;;;0.40;0.30;;;19.60;54.70;;;;;;4843919;29;20187;-83
2022/09/18 14:55:39;;;;;;;1.55;0.40;;;19.60;54.60;;;;;;4887495;29;20223;-83
2022/09/18 14:58:13;;;;;;;0.38;0.38;;;19.60;54.60;;;;;;4862993;29;20224;-83
2022/09/18 15:00:47;;;;;;;0.30;0.30;;;19.60;54.60;;;;;;4840778;29;20211;-84
2022/09/18 15:03:26;;;;;;;0.30;0.30;;;19.50;54.50;;;;;;4876120;29;20797;-83
2022/09/18 15:06:01;;;;;;;0.30;0.30;;;19.60;54.50;;;;;;4835775;29;20230;-83
2022/09/18 15:08:27;;;;;;;0.70;0.50;;;19.60;54.50;;;;;;4837036;29;20274;-83
2022/09/18 15:11:21;;;;;;;1.42;0.63;;;19.60;54.40;;;;;;4840000;29;20189;-83
2022/09/18 15:13:57;;;;;;;0.30;0.30;;;19.60;54.50;;;;;;4840703;29;20185;-83
2022/09/18 15:16:31;;;;;;;0.40;0.40;;;19.60;54.50;;;;;;4835962;29;20665;-83
2022/09/18 15:19:16;;;;;;;2.72;0.50;;;19.60;54.50;;;;;;4838441;29;20194;-84
2022/09/18 15:21:59;;;;;;;1.65;0.30;;;19.60;55.20;;;;;;4819450;29;20282;-83
2022/09/18 15:24:30;;;;;;;0.30;0.30;;;19.60;54.60;;;;;;4837312;29;20189;-83
2022/09/18 15:26:58;;;;;;;0.47;0.40;;;19.50;54.60;;;;;;4852952;29;20287;-83
2022/09/18 15:29:51;;;;;;;0.47;0.30;;;19.60;54.60;;;;;;4868816;29;20189;-83
2022/09/18 15:32:42;;;;;;;0.45;0.40;;;19.60;54.60;;;;;;4853542;29;20222;-83
2022/09/18 15:35:18;;;;;;;0.45;0.38;;;19.60;54.60;;;;;;4838474;29;20197;-83
2022/09/18 15:37:49;;;;;;;0.60;0.30;;;19.60;54.70;;;;;;4904822;29;20214;-83
2022/09/18 15:40:54;;;;;;;0.30;0.30;;;19.60;54.70;;;;;;4924545;29;20344;-83
2022/09/18 15:43:45;;;;;;;0.40;0.30;;;19.60;54.70;;;;;;4893537;29;20211;-82
2022/09/18 15:46:38;;;;;;;0.30;0.30;;;19.60;54.80;;;;;;4887837;29;20185;-84
2022/09/18 15:49:31;;;;;;;0.57;0.43;;;19.60;54.70;;;;;;4872083;29;20198;-83
2022/09/18 15:52:12;;;;;;;0.50;0.30;;;19.60;54.70;;;;;;4874616;29;20214;-83
2022/09/18 15:55:10;;;;;;;0.40;0.40;;;19.60;54.60;;;;;;4903520;29;20191;-83
2022/09/18 15:57:53;;;;;;;0.63;0.40;;;19.60;54.80;;;;;;4879902;29;20202;-83
2022/09/18 16:00:39;;;;;;;0.40;0.40;;;19.60;55.50;;;;;;4889077;29;20318;-83
2022/09/18 16:03:17;;;;;;;0.50;0.50;;;19.60;54.90;;;;;;4897103;29;20792;-84
2022/09/18 16:06:07;;;;;;;0.30;0.30;;;19.60;54.90;;;;;;4872545;29;20837;-83
2022/09/18 16:08:46;;;;;;;0.93;0.50;;;19.60;54.80;;;;;;4880041;29;20276;-83
2022/09/18 16:11:43;;;;;;;1.48;0.50;;;19.60;54.80;;;;;;4860114;29;20239;-83
2022/09/18 16:14:40;;;;;;;0.30;0.30;;;19.60;54.90;;;;;;4856077;29;20234;-83
2022/09/18 16:21:07;;;;;;;0.30;0.30;;;19.70;55.00;;;;;;4875378;29;20188;-83
2022/09/18 16:23:49;;;;;;;0.30;0.30;;;19.70;54.80;;;;;;4890563;29;20235;-83
2022/09/18 16:26:26;;;;;;;0.65;0.50;;;19.70;54.90;;;;;;4888938;29;20185;-83
2022/09/18 16:32:29;;;;;;;0.63;0.30;;;19.70;54.80;;;;;;4875637;29;20208;-84
2022/09/18 16:34:56;;;;;;;0.30;0.30;;;19.80;54.90;;;;;;4890275;29;20191;-83
2022/09/18 16:38:04;;;;;;;0.30;0.30;;;19.70;54.80;;;;;;4875157;29;20183;-83
2022/09/18 16:41:02;;;;;;;0.30;0.30;;;19.70;54.80;;;;;;4897879;29;20321;-83
2022/09/18 16:43:55;;;;;;;1.27;0.50;;;19.70;54.80;;;;;;4913397;29;20223;-82
2022/09/18 16:46:45;;;;;;;1.95;0.45;;;19.80;54.90;;;;;;4935125;29;20198;-83
2022/09/18 16:49:52;;;;;;;1.85;0.47;;;19.80;54.90;;;;;;4951130;29;20182;-83
2022/09/18 17:02:47;;;;;;;0.50;0.50;;;19.80;55.10;;;;;;4929835;29;20237;-83
2022/09/18 17:09:20;;;;;;;0.60;0.60;;;19.80;55.40;;;;;;4931310;29;20174;-83
2022/09/18 17:12:40;;;;;;;0.70;0.60;;;19.80;55.50;;;;;;4917295;29;20186;-83
2022/09/18 17:19:11;;;;;;;1.65;0.60;;;19.80;55.40;;;;;;4831323;29;20257;-82
2022/09/18 17:21:50;;;;;;;0.60;0.55;;;19.80;55.50;;;;;;4823078;29;20222;-83
2022/09/18 17:24:36;;;;;;;0.50;0.50;;;19.80;55.50;;;;;;4824229;29;20229;-83